Аэропорт: Кемерово. Кемерово

ICAO: UNEE

METAR:
2020-06-02 07:00:00
UNEE 020700Z 22004MPS 9999 SCT030CB 21/15 Q1001 R23/CLRD60 NOSIG RMK QFE728
METAR:
2020-06-02 05:00:00
TAF UNEE 020500Z 0206/0306 26007G14MPS 9999 SCT040CB TEMPO 0206/0210 21003G08MPS FM021100 31003G08MPS 6000 -SHRA BKN017CB TEMPO 0212/0215 29008G14MPS